Time;durP1;ratioP1;P1;durP2;ratioP2;P2;SDS_P1;SDS_P2;PMS_P1;PMS_P2;Temp;Humidity;BMP_temperature;BMP_pressure;BME280_temperature;BME280_humidity;BME280_pressure;Samples;Min_cycle;Max_cycle;Signal;HPM_P1;HPM_P2
2023/05/11 00:01:20;;;;;;;1.20;1.20;;;;;;;;;;5014253;28;20226;-87
2023/05/11 00:03:47;;;;;;;1.53;1.43;;;;;;;;;;5031416;28;20700;-88
2023/05/11 00:06:14;;;;;;;1.60;1.50;;;;;;;;;;5031512;28;20918;-87
2023/05/11 00:08:41;;;;;;;1.70;1.60;;;;;;;;;;5035382;28;20329;-88
2023/05/11 00:11:10;;;;;;;1.73;1.50;;;;;;;;;;5034874;28;20648;-87
2023/05/11 00:13:38;;;;;;;2.90;1.67;;;;;;;;;;5035264;28;20233;-87
2023/05/11 00:16:05;;;;;;;2.13;2.03;;;;;;;;;;5034635;28;20241;-87
2023/05/11 00:18:32;;;;;;;2.07;1.57;;;;;;;;;;5035198;28;20229;-87
2023/05/11 00:20:59;;;;;;;1.80;1.70;;;;;;;;;;5034351;28;20709;-87
2023/05/11 00:23:26;;;;;;;1.67;1.57;;;;;;;;;;5035499;28;20207;-88
2023/05/11 00:25:53;;;;;;;1.90;1.80;;;;;;;;;;5035248;28;20235;-89
2023/05/11 00:28:22;;;;;;;3.80;1.77;;;;;;;;;;5035067;28;20581;-89
2023/05/11 00:30:49;;;;;;;4.80;1.90;;;;;;;;;;5034634;28;20637;-89
2023/05/11 00:33:17;;;;;;;5.40;1.80;;;;;;;;;;5034786;28;20558;-88
2023/05/11 00:35:44;;;;;;;2.50;1.40;;;;;;;;;;5034276;28;20234;-89
2023/05/11 00:38:11;;;;;;;3.90;1.80;;;;;;;;;;5035111;28;20206;-88
2023/05/11 00:40:38;;;;;;;2.03;1.83;;;;;;;;;;5034005;28;20246;-89
2023/05/11 00:43:05;;;;;;;2.00;1.63;;;;;;;;;;5034941;28;20235;-89
2023/05/11 00:45:33;;;;;;;1.60;1.50;;;;;;;;;;5034084;28;20713;-88
2023/05/11 00:48:00;;;;;;;2.60;1.80;;;;;;;;;;5034678;28;20214;-89
2023/05/11 00:50:28;;;;;;;1.47;1.47;;;;;;;;;;5034154;28;20256;-89
2023/05/11 00:52:56;;;;;;;2.63;1.47;;;;;;;;;;5034785;28;20199;-89
2023/05/11 00:55:23;;;;;;;1.30;1.30;;;;;;;;;;5033766;28;20235;-89
2023/05/11 00:57:50;;;;;;;2.03;1.93;;;;;;;;;;5034685;28;20673;-89
2023/05/11 01:00:18;;;;;;;1.80;1.70;;;;;;;;;;5033851;28;20249;-89
2023/05/11 01:02:46;;;;;;;1.83;1.63;;;;;;;;;;5038086;28;20230;-89
2023/05/11 01:05:13;;;;;;;2.30;2.00;;;;;;;;;;5025575;28;20600;-88
2023/05/11 01:07:44;;;;;;;3.83;1.87;;;;;;;;;;5034613;28;20217;-89
2023/05/11 01:10:15;;;;;;;2.37;1.80;;;;;;;;;;5033021;28;20234;-89
2023/05/11 01:12:46;;;;;;;1.80;1.70;;;;;;;;;;5036500;28;20199;-89
2023/05/11 01:15:15;;;;;;;1.73;1.63;;;;;;;;;;5037598;28;20234;-89
2023/05/11 01:17:45;;;;;;;1.80;1.70;;;;;;;;;;5033262;28;20700;-89
2023/05/11 01:20:16;;;;;;;1.47;1.43;;;;;;;;;;5033568;28;20242;-89
2023/05/11 01:22:49;;;;;;;1.60;1.50;;;;;;;;;;5034259;28;20242;-88
2023/05/11 01:25:23;;;;;;;1.77;1.50;;;;;;;;;;5033974;28;20234;-89
2023/05/11 01:28:06;;;;;;;1.70;1.60;;;;;;;;;;5023826;28;20666;-89
2023/05/11 01:30:36;;;;;;;1.57;1.47;;;;;;;;;;5015032;28;20740;-89
2023/05/11 01:33:06;;;;;;;1.70;1.60;;;;;;;;;;5016764;28;20750;-89
2023/05/11 01:35:36;;;;;;;1.50;1.40;;;;;;;;;;5016126;28;20243;-89
2023/05/11 01:38:05;;;;;;;2.00;1.80;;;;;;;;;;5015974;28;20199;-89
2023/05/11 01:40:33;;;;;;;1.60;1.50;;;;;;;;;;5014473;28;20227;-92
2023/05/11 01:43:02;;;;;;;1.90;1.60;;;;;;;;;;5016252;28;20231;-92
2023/05/11 01:45:29;;;;;;;2.23;1.50;;;;;;;;;;5027688;28;20234;-92
2023/05/11 01:47:58;;;;;;;1.60;1.50;;;;;;;;;;5035151;28;20207;-90
2023/05/11 01:50:26;;;;;;;1.30;1.30;;;;;;;;;;5034304;28;20333;-91
2023/05/11 01:52:53;;;;;;;1.40;1.40;;;;;;;;;;5034607;28;20207;-92
2023/05/11 01:55:22;;;;;;;1.50;1.40;;;;;;;;;;5033892;28;20246;-92
2023/05/11 01:57:52;;;;;;;1.87;1.50;;;;;;;;;;5034728;28;20651;-91
2023/05/11 02:00:19;;;;;;;1.90;1.37;;;;;;;;;;5033986;28;20245;-92
2023/05/11 02:02:48;;;;;;;1.67;1.57;;;;;;;;;;5034649;28;20229;-92
2023/05/11 02:05:20;;;;;;;1.80;1.70;;;;;;;;;;5033575;28;20234;-92
2023/05/11 02:07:47;;;;;;;1.73;1.63;;;;;;;;;;5033812;28;20688;-91
2023/05/11 02:10:15;;;;;;;3.53;1.50;;;;;;;;;;5019270;28;20266;-92
2023/05/11 02:12:43;;;;;;;2.43;1.70;;;;;;;;;;5035643;28;20772;-92
2023/05/11 02:15:11;;;;;;;1.70;1.60;;;;;;;;;;5033640;28;20718;-92
2023/05/11 02:17:39;;;;;;;2.03;1.47;;;;;;;;;;5033979;28;20214;-92
2023/05/11 02:20:07;;;;;;;2.30;1.40;;;;;;;;;;5033282;28;20237;-92
2023/05/11 02:22:36;;;;;;;4.20;1.70;;;;;;;;;;5034108;28;20230;-92
2023/05/11 02:25:04;;;;;;;2.00;1.50;;;;;;;;;;5033229;28;20783;-93
2023/05/11 02:27:31;;;;;;;2.83;1.80;;;;;;;;;;5033329;28;20564;-92
2023/05/11 02:29:59;;;;;;;1.40;1.40;;;;;;;;;;5033297;28;20234;-92
2023/05/11 02:32:27;;;;;;;1.87;1.60;;;;;;;;;;5033816;28;20617;-93
2023/05/11 02:34:57;;;;;;;1.73;1.57;;;;;;;;;;5033865;28;20238;-92
2023/05/11 02:37:26;;;;;;;1.77;1.63;;;;;;;;;;5033945;28;20234;-92
2023/05/11 02:39:57;;;;;;;1.57;1.47;;;;;;;;;;5033362;28;20245;-93
2023/05/11 02:42:24;;;;;;;2.40;1.87;;;;;;;;;;5040266;28;20214;-92
2023/05/11 02:44:55;;;;;;;1.57;1.57;;;;;;;;;;5033914;28;20734;-92
2023/05/11 02:47:23;;;;;;;1.60;1.50;;;;;;;;;;5034907;28;20214;-92
2023/05/11 02:49:53;;;;;;;1.70;1.60;;;;;;;;;;5033753;28;20250;-92
2023/05/11 02:52:20;;;;;;;2.07;1.60;;;;;;;;;;5033800;28;20198;-93
2023/05/11 02:54:49;;;;;;;1.40;1.40;;;;;;;;;;5032642;28;20239;-92
2023/05/11 02:57:20;;;;;;;2.20;2.03;;;;;;;;;;5033495;28;20207;-92
2023/05/11 02:59:48;;;;;;;2.50;1.60;;;;;;;;;;5032462;28;20234;-92
2023/05/11 03:02:15;;;;;;;1.63;1.53;;;;;;;;;;5032708;28;20222;-92
2023/05/11 03:04:42;;;;;;;1.87;1.70;;;;;;;;;;5032943;28;20258;-92
2023/05/11 03:07:10;;;;;;;1.83;1.73;;;;;;;;;;5033237;28;20213;-92
2023/05/11 03:09:37;;;;;;;2.23;1.90;;;;;;;;;;5032909;28;20237;-92
2023/05/11 03:12:05;;;;;;;1.70;1.60;;;;;;;;;;5033264;28;20206;-92
2023/05/11 03:14:34;;;;;;;3.43;1.90;;;;;;;;;;5033140;28;20234;-92
2023/05/11 03:17:02;;;;;;;2.10;1.90;;;;;;;;;;5036640;28;20195;-91
2023/05/11 03:19:29;;;;;;;2.00;1.90;;;;;;;;;;5050868;28;20239;-91
2023/05/11 03:21:58;;;;;;;1.60;1.50;;;;;;;;;;5041680;28;20321;-92
2023/05/11 03:24:26;;;;;;;1.83;1.73;;;;;;;;;;5032461;28;20234;-92
2023/05/11 03:26:54;;;;;;;1.90;1.80;;;;;;;;;;5033264;28;20217;-91
2023/05/11 03:29:22;;;;;;;2.07;1.90;;;;;;;;;;5032608;28;20230;-92
2023/05/11 03:31:50;;;;;;;1.90;1.80;;;;;;;;;;5033879;28;20213;-92
2023/05/11 03:34:17;;;;;;;2.33;2.00;;;;;;;;;;5032615;28;20206;-91
2023/05/11 03:36:45;;;;;;;2.10;2.00;;;;;;;;;;5032178;28;20229;-90
2023/05/11 03:39:13;;;;;;;1.83;1.70;;;;;;;;;;5031787;28;20245;-92
2023/05/11 03:41:40;;;;;;;1.73;1.63;;;;;;;;;;5034103;28;20228;-92
2023/05/11 03:44:09;;;;;;;1.70;1.60;;;;;;;;;;5036490;28;20203;-92
2023/05/11 03:46:36;;;;;;;1.80;1.70;;;;;;;;;;5037065;28;20217;-92
2023/05/11 03:49:05;;;;;;;7.77;1.97;;;;;;;;;;5036863;28;20735;-92
2023/05/11 03:51:32;;;;;;;1.80;1.70;;;;;;;;;;5037055;28;20233;-92
2023/05/11 03:54:00;;;;;;;2.90;1.87;;;;;;;;;;5036790;28;20211;-92
2023/05/11 03:56:27;;;;;;;4.07;2.43;;;;;;;;;;5036201;28;20246;-92
2023/05/11 03:58:54;;;;;;;3.03;1.93;;;;;;;;;;5037120;28;20234;-92
2023/05/11 04:01:22;;;;;;;2.80;2.60;;;;;;;;;;5036838;28;20241;-92
2023/05/11 04:03:50;;;;;;;2.00;1.90;;;;;;;;;;5038560;28;20369;-92
2023/05/11 04:06:19;;;;;;;2.00;1.80;;;;;;;;;;5044292;28;20234;-91
2023/05/11 04:08:46;;;;;;;2.73;2.00;;;;;;;;;;5048800;28;20712;-92
2023/05/11 04:11:13;;;;;;;1.93;1.73;;;;;;;;;;5050317;28;20237;-92
2023/05/11 04:13:40;;;;;;;2.20;2.10;;;;;;;;;;5051748;28;20203;-92
2023/05/11 04:16:08;;;;;;;3.13;2.20;;;;;;;;;;5048532;28;20230;-93
2023/05/11 04:18:35;;;;;;;2.37;2.17;;;;;;;;;;5039340;28;20206;-92
2023/05/11 04:21:02;;;;;;;1.80;1.70;;;;;;;;;;5037398;28;20234;-92
2023/05/11 04:23:30;;;;;;;8.43;2.37;;;;;;;;;;5037758;28;20234;-92
2023/05/11 04:25:57;;;;;;;2.40;2.20;;;;;;;;;;5038074;28;20248;-92
2023/05/11 04:28:26;;;;;;;2.73;2.53;;;;;;;;;;5038186;28;20587;-92
2023/05/11 04:30:54;;;;;;;2.20;2.10;;;;;;;;;;5036552;28;20242;-92
2023/05/11 04:33:21;;;;;;;2.20;2.03;;;;;;;;;;5037527;28;20550;-93
2023/05/11 04:35:50;;;;;;;2.37;2.17;;;;;;;;;;5036454;28;20242;-90
2023/05/11 04:38:17;;;;;;;4.87;1.90;;;;;;;;;;5035593;28;20213;-90
2023/05/11 04:40:46;;;;;;;2.67;2.40;;;;;;;;;;5035454;28;20654;-90
2023/05/11 04:43:13;;;;;;;2.43;2.20;;;;;;;;;;5035302;28;20227;-90
2023/05/11 04:45:40;;;;;;;2.23;2.03;;;;;;;;;;5035090;28;20245;-90
2023/05/11 04:48:07;;;;;;;4.13;2.70;;;;;;;;;;5034505;28;20696;-90
2023/05/11 04:50:34;;;;;;;2.83;2.53;;;;;;;;;;5034710;28;20242;-90
2023/05/11 04:53:01;;;;;;;4.33;2.50;;;;;;;;;;5034741;28;20557;-90
2023/05/11 04:55:29;;;;;;;2.93;2.73;;;;;;;;;;5036448;28;20239;-93
2023/05/11 04:57:57;;;;;;;3.70;2.50;;;;;;;;;;5036164;28;20210;-92
2023/05/11 05:00:24;;;;;;;2.43;2.23;;;;;;;;;;5035166;28;20235;-93
2023/05/11 05:02:51;;;;;;;3.40;2.90;;;;;;;;;;5036436;28;20226;-93
2023/05/11 05:05:18;;;;;;;3.07;2.20;;;;;;;;;;5035825;28;20245;-92
2023/05/11 05:07:46;;;;;;;2.93;2.30;;;;;;;;;;5037511;28;20210;-92
2023/05/11 05:10:13;;;;;;;2.97;2.57;;;;;;;;;;5036187;28;20249;-92
2023/05/11 05:12:40;;;;;;;4.93;2.30;;;;;;;;;;5036735;28;20183;-91
2023/05/11 05:15:10;;;;;;;2.60;2.13;;;;;;;;;;5036577;28;20296;-92
2023/05/11 05:17:37;;;;;;;2.33;2.23;;;;;;;;;;5037212;28;20684;-92
2023/05/11 05:20:04;;;;;;;2.67;2.40;;;;;;;;;;5036686;28;20241;-92
2023/05/11 05:22:31;;;;;;;3.63;2.20;;;;;;;;;;5045597;28;20203;-91
2023/05/11 05:24:58;;;;;;;3.60;2.40;;;;;;;;;;5052957;28;20230;-91
2023/05/11 05:27:25;;;;;;;2.30;2.00;;;;;;;;;;5051526;28;20210;-92
2023/05/11 05:29:53;;;;;;;2.57;2.37;;;;;;;;;;5037101;28;20239;-93
2023/05/11 05:32:21;;;;;;;2.80;2.60;;;;;;;;;;5035396;28;20207;-93
2023/05/11 05:34:48;;;;;;;2.60;2.40;;;;;;;;;;5035641;28;20234;-91
2023/05/11 05:37:15;;;;;;;3.53;2.30;;;;;;;;;;5036148;28;20207;-92
2023/05/11 05:39:43;;;;;;;4.23;2.60;;;;;;;;;;5034951;28;20235;-92
2023/05/11 05:42:10;;;;;;;3.10;2.80;;;;;;;;;;5036412;28;20578;-93
2023/05/11 05:44:38;;;;;;;4.50;2.50;;;;;;;;;;5034385;28;20598;-93
2023/05/11 05:47:05;;;;;;;3.13;2.83;;;;;;;;;;5035457;28;20229;-92
2023/05/11 05:49:34;;;;;;;2.50;2.30;;;;;;;;;;5035439;28;20238;-93
2023/05/11 05:52:01;;;;;;;2.43;2.23;;;;;;;;;;5038332;28;20235;-93
2023/05/11 05:54:28;;;;;;;2.80;2.60;;;;;;;;;;5036327;28;20237;-91
2023/05/11 05:56:55;;;;;;;3.60;2.70;;;;;;;;;;5046386;28;20207;-93
2023/05/11 05:59:23;;;;;;;2.90;2.70;;;;;;;;;;5041927;28;20294;-91
2023/05/11 06:01:50;;;;;;;4.23;2.60;;;;;;;;;;5027357;28;20211;-92
2023/05/11 06:04:18;;;;;;;3.23;2.90;;;;;;;;;;5036615;28;20219;-91
2023/05/11 06:06:47;;;;;;;2.60;2.40;;;;;;;;;;5029581;28;20217;-94
2023/05/11 06:09:14;;;;;;;3.17;2.83;;;;;;;;;;5033635;28;20258;-92
2023/05/11 06:11:42;;;;;;;3.43;3.10;;;;;;;;;;5031474;28;20206;-92
2023/05/11 06:14:09;;;;;;;2.90;2.70;;;;;;;;;;5020462;28;20219;-93
2023/05/11 06:16:37;;;;;;;4.40;2.70;;;;;;;;;;5028824;28;20291;-92
2023/05/11 06:19:04;;;;;;;4.03;2.77;;;;;;;;;;5039780;28;20227;-92
2023/05/11 06:21:31;;;;;;;9.67;3.37;;;;;;;;;;5040265;28;20218;-91
2023/05/11 06:24:00;;;;;;;5.17;2.40;;;;;;;;;;5021597;28;20223;-91
2023/05/11 06:26:27;;;;;;;4.40;2.37;;;;;;;;;;5020055;28;20314;-93
2023/05/11 06:28:54;;;;;;;2.93;2.70;;;;;;;;;;5024556;28;20223;-92
2023/05/11 06:31:23;;;;;;;3.07;2.77;;;;;;;;;;5039798;28;20708;-92
2023/05/11 06:33:50;;;;;;;2.90;2.47;;;;;;;;;;5030263;28;20208;-93
2023/05/11 06:36:17;;;;;;;2.87;2.40;;;;;;;;;;5032328;28;20231;-94
2023/05/11 06:38:44;;;;;;;2.83;2.63;;;;;;;;;;5039660;28;20230;-93
2023/05/11 06:41:12;;;;;;;2.90;2.60;;;;;;;;;;5022840;28;20254;-93
2023/05/11 06:43:39;;;;;;;2.50;2.30;;;;;;;;;;5025837;28;20314;-92
2023/05/11 06:46:06;;;;;;;4.57;3.23;;;;;;;;;;5022246;28;20227;-92
2023/05/11 06:48:33;;;;;;;4.33;2.60;;;;;;;;;;5027815;28;20211;-92
2023/05/11 06:51:01;;;;;;;2.60;2.40;;;;;;;;;;5019612;28;20226;-92
2023/05/11 06:53:28;;;;;;;4.13;2.40;;;;;;;;;;5033984;28;20210;-90
2023/05/11 06:55:55;;;;;;;3.47;2.73;;;;;;;;;;5026518;28;20235;-92
2023/05/11 06:58:23;;;;;;;2.73;2.53;;;;;;;;;;5021182;28;20717;-89
2023/05/11 07:00:50;;;;;;;3.23;2.47;;;;;;;;;;5027361;28;20231;-91
2023/05/11 07:03:18;;;;;;;3.00;2.80;;;;;;;;;;5027671;28;20793;-90
2023/05/11 07:05:45;;;;;;;3.03;2.77;;;;;;;;;;5034322;28;20230;-90
2023/05/11 07:08:12;;;;;;;4.03;2.70;;;;;;;;;;5029532;28;20207;-91
2023/05/11 07:10:40;;;;;;;2.70;2.50;;;;;;;;;;5023396;28;20235;-91
2023/05/11 07:13:07;;;;;;;2.80;2.60;;;;;;;;;;5028247;28;20241;-90
2023/05/11 07:15:35;;;;;;;4.13;2.83;;;;;;;;;;5028628;28;20251;-90
2023/05/11 07:18:03;;;;;;;3.23;2.63;;;;;;;;;;5016098;28;20236;-90
2023/05/11 07:20:30;;;;;;;3.20;2.90;;;;;;;;;;5027136;28;20241;-86
2023/05/11 07:22:58;;;;;;;2.40;2.30;;;;;;;;;;5033795;28;20215;-87
2023/05/11 07:25:25;;;;;;;2.73;2.33;;;;;;;;;;5038075;28;20234;-86
2023/05/11 07:27:52;;;;;;;3.10;2.77;;;;;;;;;;5032725;28;20211;-85
2023/05/11 07:30:19;;;;;;;3.10;2.60;;;;;;;;;;5029588;28;20235;-91
2023/05/11 07:32:48;;;;;;;2.80;2.50;;;;;;;;;;5029332;28;20610;-90
2023/05/11 07:35:15;;;;;;;3.17;2.97;;;;;;;;;;5023087;28;20300;-90
2023/05/11 07:37:42;;;;;;;3.67;2.83;;;;;;;;;;5022859;28;20211;-91
2023/05/11 07:40:10;;;;;;;3.63;2.87;;;;;;;;;;5038524;28;20257;-93
2023/05/11 07:42:37;;;;;;;3.10;2.80;;;;;;;;;;5033097;28;20204;-91
2023/05/11 07:45:04;;;;;;;3.30;2.70;;;;;;;;;;5019204;28;20235;-93
2023/05/11 07:47:31;;;;;;;3.87;2.70;;;;;;;;;;5023749;28;20206;-89
2023/05/11 07:49:59;;;;;;;5.73;2.83;;;;;;;;;;5035928;28;20237;-89
2023/05/11 07:52:27;;;;;;;4.23;2.83;;;;;;;;;;5023892;28;20208;-89
2023/05/11 07:54:54;;;;;;;5.80;2.93;;;;;;;;;;5031990;28;20235;-87
2023/05/11 07:57:21;;;;;;;3.23;2.90;;;;;;;;;;5019149;28;20695;-87
2023/05/11 07:59:48;;;;;;;6.87;2.70;;;;;;;;;;5031656;28;20234;-85
2023/05/11 08:02:15;;;;;;;3.50;2.97;;;;;;;;;;5022250;28;20264;-85
2023/05/11 08:04:42;;;;;;;3.10;2.80;;;;;;;;;;5021993;28;20258;-85
2023/05/11 08:07:11;;;;;;;2.90;2.60;;;;;;;;;;5019327;28;20238;-85
2023/05/11 08:09:38;;;;;;;3.17;2.87;;;;;;;;;;5016666;28;20234;-85
2023/05/11 08:12:05;;;;;;;3.50;2.50;;;;;;;;;;5022181;28;20211;-84
2023/05/11 08:14:32;;;;;;;2.90;2.70;;;;;;;;;;5030254;28;20313;-85
2023/05/11 08:16:59;;;;;;;2.90;2.70;;;;;;;;;;5030948;28;20833;-84
2023/05/11 08:19:26;;;;;;;4.80;3.40;;;;;;;;;;5029563;28;20874;-85
2023/05/11 08:21:53;;;;;;;3.93;3.40;;;;;;;;;;5030076;28;20206;-85
2023/05/11 08:24:22;;;;;;;3.17;2.87;;;;;;;;;;5025464;28;20239;-85
2023/05/11 08:26:49;;;;;;;4.90;3.30;;;;;;;;;;5018924;28;20243;-86
2023/05/11 08:29:16;;;;;;;3.67;3.27;;;;;;;;;;5024873;28;20713;-85
2023/05/11 08:31:43;;;;;;;4.07;2.70;;;;;;;;;;5025206;28;20210;-86
2023/05/11 08:34:11;;;;;;;3.60;3.30;;;;;;;;;;5024884;28;20210;-87
2023/05/11 08:36:38;;;;;;;5.93;3.03;;;;;;;;;;5033750;28;20211;-86
2023/05/11 08:39:05;;;;;;;3.43;3.10;;;;;;;;;;5024161;28;20235;-86
2023/05/11 08:41:33;;;;;;;3.87;2.87;;;;;;;;;;5027698;28;20215;-87
2023/05/11 08:44:01;;;;;;;2.93;2.73;;;;;;;;;;5031306;28;20235;-86
2023/05/11 08:46:29;;;;;;;3.60;3.30;;;;;;;;;;5033138;28;20261;-87
2023/05/11 08:48:56;;;;;;;3.40;3.10;;;;;;;;;;5033937;28;20231;-87
2023/05/11 08:51:24;;;;;;;3.23;2.93;;;;;;;;;;5031601;28;20321;-86
2023/05/11 08:53:51;;;;;;;4.43;2.63;;;;;;;;;;5027388;28;20421;-86
2023/05/11 08:56:20;;;;;;;3.80;3.00;;;;;;;;;;5027098;28;20240;-86
2023/05/11 08:58:51;;;;;;;3.63;3.27;;;;;;;;;;5025209;28;20718;-86
2023/05/11 09:01:18;;;;;;;3.27;2.60;;;;;;;;;;5024422;28;20259;-86
2023/05/11 09:03:46;;;;;;;4.93;2.73;;;;;;;;;;5015385;28;20234;-86
2023/05/11 09:06:13;;;;;;;4.57;2.70;;;;;;;;;;5018413;28;20215;-86
2023/05/11 09:08:40;;;;;;;3.27;2.90;;;;;;;;;;5021376;28;20227;-86
2023/05/11 09:11:08;;;;;;;3.50;3.00;;;;;;;;;;5020229;28;20227;-86
2023/05/11 09:13:35;;;;;;;3.03;2.73;;;;;;;;;;5016067;28;20686;-86
2023/05/11 09:16:03;;;;;;;3.57;2.90;;;;;;;;;;5015215;28;20243;-91
2023/05/11 09:18:30;;;;;;;3.67;3.07;;;;;;;;;;5034494;28;20207;-92
2023/05/11 09:20:58;;;;;;;3.93;3.53;;;;;;;;;;5034757;28;20242;-93
2023/05/11 09:23:26;;;;;;;5.40;3.47;;;;;;;;;;5024881;28;20203;-94
2023/05/11 09:25:53;;;;;;;3.83;2.70;;;;;;;;;;5036464;28;20313;-94
2023/05/11 09:28:25;;;;;;;3.20;2.90;;;;;;;;;;5038681;28;20210;-90
2023/05/11 09:30:52;;;;;;;3.50;3.20;;;;;;;;;;5037095;28;20242;-93
2023/05/11 09:33:24;;;;;;;2.90;2.67;;;;;;;;;;5021738;28;20612;-90
2023/05/11 09:35:52;;;;;;;4.60;3.10;;;;;;;;;;5029381;28;20313;-90
2023/05/11 09:38:19;;;;;;;6.23;3.47;;;;;;;;;;5034902;28;20217;-92
2023/05/11 09:40:54;;;;;;;3.73;3.07;;;;;;;;;;5034424;28;20262;-92
2023/05/11 09:43:22;;;;;;;3.20;2.57;;;;;;;;;;5018807;28;20206;-91
2023/05/11 09:45:51;;;;;;;3.93;2.93;;;;;;;;;;5034922;28;20238;-91
2023/05/11 09:48:30;;;;;;;4.90;2.83;;;;;;;;;;5035930;28;20270;-91
2023/05/11 09:51:02;;;;;;;2.77;2.57;;;;;;;;;;5036514;28;20798;-91
2023/05/11 09:53:41;;;;;;;3.63;2.70;;;;;;;;;;5036086;28;20778;-91
2023/05/11 09:56:09;;;;;;;3.03;2.73;;;;;;;;;;5017281;28;20242;-89
2023/05/11 09:58:46;;;;;;;3.80;3.10;;;;;;;;;;5022291;28;20214;-91
2023/05/11 10:01:13;;;;;;;3.20;3.00;;;;;;;;;;5027091;28;20234;-91
2023/05/11 10:03:48;;;;;;;3.17;2.87;;;;;;;;;;5017958;28;20215;-87
2023/05/11 10:06:15;;;;;;;3.20;2.80;;;;;;;;;;5030854;28;20703;-87
2023/05/11 10:08:42;;;;;;;2.80;2.60;;;;;;;;;;5017347;28;20219;-86
2023/05/11 10:11:09;;;;;;;3.70;3.27;;;;;;;;;;5029373;28;20715;-87
2023/05/11 10:13:37;;;;;;;3.50;3.20;;;;;;;;;;5031257;28;20298;-87
2023/05/11 10:16:05;;;;;;;3.60;3.30;;;;;;;;;;5022352;28;20292;-86
2023/05/11 10:18:32;;;;;;;4.40;4.00;;;;;;;;;;5017946;28;20201;-86
2023/05/11 10:21:00;;;;;;;5.63;4.17;;;;;;;;;;5028163;28;20235;-87
2023/05/11 10:23:28;;;;;;;5.75;3.70;;;;;;;;;;5026448;28;20678;-87
2023/05/11 10:25:55;;;;;;;6.70;3.55;;;;;;;;;;5019447;28;20238;-87
2023/05/11 10:28:22;;;;;;;5.70;4.80;;;;;;;;;;5019732;28;20219;-86
2023/05/11 10:30:50;;;;;;;4.82;3.92;;;;;;;;;;5018679;28;20239;-86
2023/05/11 10:33:17;;;;;;;4.55;3.20;;;;;;;;;;5023048;28;20315;-87
2023/05/11 10:35:45;;;;;;;3.47;3.17;;;;;;;;;;5022442;28;20235;-87
2023/05/11 10:38:15;;;;;;;4.80;3.65;;;;;;;;;;5020569;28;20225;-86
2023/05/11 10:40:43;;;;;;;4.13;3.75;;;;;;;;;;5019099;28;20702;-85
2023/05/11 10:43:31;;;;;;;4.47;3.70;;;;;;;;;;5018898;28;20210;-86
2023/05/11 10:46:04;;;;;;;4.32;3.92;;;;;;;;;;5026540;28;20617;-85
2023/05/11 10:48:39;;;;;;;5.30;3.97;;;;;;;;;;5023847;28;20210;-85
2023/05/11 10:51:24;;;;;;;4.60;3.78;;;;;;;;;;5028849;28;20610;-85
2023/05/11 10:54:03;;;;;;;5.17;4.00;;;;;;;;;;5018418;28;20198;-85
2023/05/11 10:56:38;;;;;;;4.15;3.67;;;;;;;;;;5026424;28;20241;-85
2023/05/11 10:59:16;;;;;;;4.50;3.60;;;;;;;;;;5019739;28;20230;-85
2023/05/11 11:01:44;;;;;;;4.38;3.90;;;;;;;;;;5016167;28;20211;-86
2023/05/11 11:04:12;;;;;;;6.63;4.20;;;;;;;;;;5018667;28;20620;-88
2023/05/11 11:06:40;;;;;;;4.13;3.72;;;;;;;;;;5017807;28;20580;-93
2023/05/11 11:09:11;;;;;;;4.22;3.83;;;;;;;;;;5032677;28;20231;-93
2023/05/11 11:11:39;;;;;;;4.78;4.13;;;;;;;;;;5014874;28;20196;-93
2023/05/11 11:14:08;;;;;;;4.03;3.63;;;;;;;;;;5014643;28;20225;-92
2023/05/11 11:16:35;;;;;;;4.37;3.97;;;;;;;;;;5015329;28;20680;-90
2023/05/11 11:19:24;;;;;;;4.32;3.92;;;;;;;;;;5021389;28;20722;-90
2023/05/11 11:21:51;;;;;;;5.45;4.30;;;;;;;;;;5034987;28;20180;-92
2023/05/11 11:24:45;;;;;;;4.70;4.05;;;;;;;;;;5031432;28;20645;-92
2023/05/11 11:27:12;;;;;;;6.20;4.32;;;;;;;;;;5022768;28;20214;-92
2023/05/11 11:29:40;;;;;;;4.45;4.03;;;;;;;;;;5027903;28;20237;-93
2023/05/11 11:32:27;;;;;;;4.63;4.07;;;;;;;;;;5034718;28;20212;-92
2023/05/11 11:34:54;;;;;;;6.35;4.03;;;;;;;;;;5014787;28;20223;-93
2023/05/11 11:37:22;;;;;;;4.80;4.28;;;;;;;;;;5015126;28;20203;-93
2023/05/11 11:39:59;;;;;;;4.15;3.72;;;;;;;;;;5014095;28;20235;-92
2023/05/11 11:42:33;;;;;;;4.30;3.90;;;;;;;;;;5015174;28;20211;-92
2023/05/11 11:45:15;;;;;;;4.43;4.00;;;;;;;;;;5014600;28;20234;-94
2023/05/11 11:47:42;;;;;;;4.38;3.97;;;;;;;;;;5031822;28;20226;-91
2023/05/11 11:50:12;;;;;;;5.50;5.00;;;;;;;;;;5034170;28;20266;-92
2023/05/11 11:52:39;;;;;;;8.73;4.43;;;;;;;;;;5034702;28;20254;-92
2023/05/11 11:55:08;;;;;;;5.95;4.35;;;;;;;;;;5034467;28;20257;-91
2023/05/11 11:57:48;;;;;;;4.32;3.92;;;;;;;;;;5022494;28;20242;-91
2023/05/11 12:00:21;;;;;;;4.22;3.83;;;;;;;;;;5014714;28;20245;-91
2023/05/11 12:02:48;;;;;;;5.97;4.00;;;;;;;;;;5016497;28;20238;-92
2023/05/11 12:05:17;;;;;;;5.82;4.20;;;;;;;;;;5034395;28;20245;-92
2023/05/11 12:07:44;;;;;;;4.18;3.70;;;;;;;;;;5033775;28;20203;-92
2023/05/11 12:10:14;;;;;;;4.75;3.60;;;;;;;;;;5017913;28;20300;-90
2023/05/11 12:12:45;;;;;;;4.93;3.63;;;;;;;;;;5017500;28;20207;-91
2023/05/11 12:15:23;;;;;;;3.88;3.58;;;;;;;;;;5016671;28;20235;-90
2023/05/11 12:17:50;;;;;;;4.90;3.75;;;;;;;;;;5016085;28;20207;-88
2023/05/11 12:20:18;;;;;;;4.72;3.53;;;;;;;;;;5015637;28;20235;-89
2023/05/11 12:22:47;;;;;;;5.28;4.05;;;;;;;;;;5024349;28;20264;-89
2023/05/11 12:25:17;;;;;;;4.82;4.38;;;;;;;;;;5033942;28;20238;-88
2023/05/11 12:27:48;;;;;;;4.60;4.03;;;;;;;;;;5034813;28;20685;-88
2023/05/11 12:30:20;;;;;;;6.30;4.63;;;;;;;;;;5032969;28;20724;-87
2023/05/11 12:32:47;;;;;;;4.53;4.13;;;;;;;;;;5037140;28;20237;-91
2023/05/11 12:35:15;;;;;;;6.43;4.70;;;;;;;;;;5035639;28;20241;-90
2023/05/11 12:37:43;;;;;;;4.90;4.40;;;;;;;;;;5035877;28;20547;-89
2023/05/11 12:40:11;;;;;;;4.57;4.18;;;;;;;;;;5035299;28;20241;-90
2023/05/11 12:42:49;;;;;;;4.85;4.25;;;;;;;;;;5035116;28;20203;-89
2023/05/11 12:45:18;;;;;;;5.40;4.90;;;;;;;;;;5029530;28;20227;-90
2023/05/11 12:47:45;;;;;;;5.70;5.10;;;;;;;;;;5020872;28;20234;-88
2023/05/11 12:50:12;;;;;;;5.82;5.15;;;;;;;;;;5024849;28;20242;-89
2023/05/11 12:52:39;;;;;;;5.75;5.03;;;;;;;;;;5028602;28;20207;-89
2023/05/11 12:55:08;;;;;;;5.75;4.97;;;;;;;;;;5015971;28;20242;-89
2023/05/11 12:57:35;;;;;;;5.03;4.53;;;;;;;;;;5016366;28;20235;-90
2023/05/11 13:00:08;;;;;;;5.13;4.63;;;;;;;;;;5016085;28;20239;-89
2023/05/11 13:02:36;;;;;;;4.95;4.55;;;;;;;;;;5020762;28;20209;-89
2023/05/11 13:05:11;;;;;;;5.28;4.78;;;;;;;;;;5036092;28;20235;-89
2023/05/11 13:07:38;;;;;;;6.85;4.63;;;;;;;;;;5036648;28;20210;-89
2023/05/11 13:10:06;;;;;;;4.60;4.20;;;;;;;;;;5034780;28;20234;-89
2023/05/11 13:12:34;;;;;;;6.07;4.30;;;;;;;;;;5030965;28;20226;-87
2023/05/11 13:15:05;;;;;;;5.03;4.53;;;;;;;;;;5012830;28;20277;-87
2023/05/11 13:17:34;;;;;;;5.00;4.60;;;;;;;;;;5027036;28;20210;-87
2023/05/11 13:20:25;;;;;;;4.47;4.05;;;;;;;;;;5032940;28;20636;-87
2023/05/11 13:23:02;;;;;;;4.55;4.15;;;;;;;;;;5034157;28;20202;-87
2023/05/11 13:25:29;;;;;;;4.68;4.28;;;;;;;;;;5032646;28;20238;-88
2023/05/11 13:27:57;;;;;;;5.68;4.72;;;;;;;;;;5027521;28;20215;-87
2023/05/11 13:30:24;;;;;;;4.57;4.18;;;;;;;;;;5012499;28;20926;-87
2023/05/11 13:32:52;;;;;;;5.18;4.10;;;;;;;;;;5013758;28;20631;-87
2023/05/11 13:35:19;;;;;;;4.30;3.90;;;;;;;;;;5012409;28;20591;-88
2023/05/11 13:37:46;;;;;;;4.75;4.30;;;;;;;;;;5017299;28;20206;-90
2023/05/11 13:40:14;;;;;;;5.65;4.30;;;;;;;;;;5033630;28;20739;-90
2023/05/11 13:42:42;;;;;;;6.65;5.90;;;;;;;;;;5035754;28;20207;-91
2023/05/11 13:45:10;;;;;;;6.22;5.63;;;;;;;;;;5035025;28;20242;-91
2023/05/11 13:47:37;;;;;;;7.32;6.03;;;;;;;;;;5034678;28;20261;-91
2023/05/11 13:50:08;;;;;;;6.85;6.25;;;;;;;;;;5034959;28;20250;-91
2023/05/11 13:52:36;;;;;;;6.65;5.95;;;;;;;;;;5035122;28;20811;-92
2023/05/11 13:55:03;;;;;;;6.72;6.10;;;;;;;;;;5026608;28;20227;-91
2023/05/11 13:57:30;;;;;;;6.05;5.45;;;;;;;;;;5015621;28;20199;-92
2023/05/11 13:59:57;;;;;;;6.38;5.78;;;;;;;;;;5014367;28;20231;-92
2023/05/11 14:02:24;;;;;;;6.68;6.00;;;;;;;;;;5024602;28;20214;-90
2023/05/11 14:04:51;;;;;;;6.53;5.90;;;;;;;;;;5028088;28;20241;-90
2023/05/11 14:07:19;;;;;;;6.43;5.70;;;;;;;;;;5029285;28;20230;-91
2023/05/11 14:09:49;;;;;;;7.43;5.93;;;;;;;;;;5028992;28;20243;-91
2023/05/11 14:12:16;;;;;;;6.38;5.78;;;;;;;;;;5017363;28;20257;-91
2023/05/11 14:14:43;;;;;;;6.78;6.07;;;;;;;;;;5015861;28;20655;-91
2023/05/11 14:17:12;;;;;;;6.30;5.50;;;;;;;;;;5015400;28;20231;-91
2023/05/11 14:19:39;;;;;;;6.40;5.80;;;;;;;;;;5030367;28;20238;-93
2023/05/11 14:22:06;;;;;;;3.88;3.58;;;;;;;;;;5034488;28;20261;-90
2023/05/11 14:24:35;;;;;;;6.20;3.78;;;;;;;;;;5034252;28;20238;-92
2023/05/11 14:27:02;;;;;;;5.57;5.07;;;;;;;;;;5033523;28;20223;-92
2023/05/11 14:29:30;;;;;;;5.40;4.90;;;;;;;;;;5034170;28;20242;-92
2023/05/11 14:31:57;;;;;;;6.50;5.50;;;;;;;;;;5035054;28;20227;-92
2023/05/11 14:34:24;;;;;;;7.28;5.47;;;;;;;;;;5034178;28;20237;-92
2023/05/11 14:36:51;;;;;;;5.07;4.68;;;;;;;;;;5034727;28;20199;-92
2023/05/11 14:39:18;;;;;;;4.97;4.47;;;;;;;;;;5032783;28;20254;-92
2023/05/11 14:41:47;;;;;;;5.28;4.78;;;;;;;;;;5034235;28;20205;-91
2023/05/11 14:44:14;;;;;;;5.93;4.90;;;;;;;;;;5034204;28;20211;-92
2023/05/11 14:46:41;;;;;;;5.57;5.00;;;;;;;;;;5034914;28;20322;-93
2023/05/11 14:49:08;;;;;;;5.80;5.20;;;;;;;;;;5034852;28;20273;-92
2023/05/11 14:51:35;;;;;;;5.80;5.30;;;;;;;;;;5034485;28;20207;-93